Time;durP1;ratioP1;P1;durP2;ratioP2;P2;SDS_P1;SDS_P2;PMS_P1;PMS_P2;Temp;Humidity;BMP_temperature;BMP_pressure;BME280_temperature;BME280_humidity;BME280_pressure;Samples;Min_cycle;Max_cycle;Signal;HPM_P1;HPM_P2
2021/12/17 00:04:36;;;;;;;43.33;9.30;;;;;;;;;;5008229;28;20064;-63
2021/12/17 00:07:05;;;;;;;50.60;11.00;;;;;;;;;;5007156;28;20415;-63
2021/12/17 00:09:31;;;;;;;48.85;11.13;;;;;;;;;;5007899;28;20476;-63
2021/12/17 00:11:57;;;;;;;42.10;10.68;;;;;;;;;;5007901;28;20096;-63
2021/12/17 00:14:29;;;;;;;39.00;10.52;;;;;;;;;;5007382;28;20042;-64
2021/12/17 00:16:57;;;;;;;30.83;9.68;;;;;;;;;;5007273;28;20113;-63
2021/12/17 00:46:31;;;;;;;20.42;11.75;;;;;;;;;;5006442;28;20113;-63
2021/12/17 00:49:44;;;;;;;16.25;9.77;;;;;;;;;;4955518;28;20046;-63
2021/12/17 00:52:10;;;;;;;14.75;8.85;;;;;;;;;;5007225;28;20117;-63
2021/12/17 00:54:39;;;;;;;12.93;8.38;;;;;;;;;;5006819;28;20049;-63
2021/12/17 00:57:07;;;;;;;14.43;9.40;;;;;;;;;;5006926;28;20081;-63
2021/12/17 00:59:34;;;;;;;13.95;8.23;;;;;;;;;;5005356;28;20038;-63
2021/12/17 01:02:02;;;;;;;18.48;9.57;;;;;;;;;;5006791;28;20065;-63
2021/12/17 01:04:28;;;;;;;17.23;9.00;;;;;;;;;;5008177;28;20054;-63
2021/12/17 01:06:54;;;;;;;20.60;10.45;;;;;;;;;;5013124;28;20511;-64
2021/12/17 01:09:22;;;;;;;20.15;9.40;;;;;;;;;;5006794;28;20538;-63
2021/12/17 01:11:48;;;;;;;21.15;10.20;;;;;;;;;;5006727;28;20523;-63
2021/12/17 01:14:15;;;;;;;18.70;9.52;;;;;;;;;;5008305;28;20076;-63
2021/12/17 01:16:41;;;;;;;18.75;9.10;;;;;;;;;;5010873;28;20057;-64
2021/12/17 01:19:19;;;;;;;21.65;9.38;;;;;;;;;;5012093;28;20564;-64
2021/12/17 01:24:28;;;;;;;18.40;8.52;;;;;;;;;;5010838;28;20594;-64
2021/12/17 01:43:28;;;;;;;22.52;9.35;;;;;;;;;;5010242;28;20054;-63
2021/12/17 01:45:54;;;;;;;19.95;8.50;;;;;;;;;;5011528;28;20038;-62
2021/12/17 01:48:26;;;;;;;29.67;10.77;;;;;;;;;;5009947;28;20042;-62
2021/12/17 02:01:40;;;;;;;20.60;9.52;;;;;;;;;;5018270;28;20564;-63
2021/12/17 02:04:07;;;;;;;20.63;9.27;;;;;;;;;;5010135;28;20037;-63
2021/12/17 02:06:38;;;;;;;27.08;9.93;;;;;;;;;;5005145;28;20108;-63
2021/12/17 02:09:21;;;;;;;27.77;9.98;;;;;;;;;;5010036;28;20122;-63
2021/12/17 02:33:43;;;;;;;18.05;7.18;;;;;;;;;;4950318;28;19922;-63
2021/12/17 02:36:09;;;;;;;17.00;7.25;;;;;;;;;;4993413;28;20539;-62
2021/12/17 02:38:39;;;;;;;14.43;6.68;;;;;;;;;;5010769;28;20522;-62
2021/12/17 02:46:36;;;;;;;19.50;7.18;;;;;;;;;;5007143;28;20060;-63
2021/12/17 02:49:02;;;;;;;16.77;6.95;;;;;;;;;;5010708;28;20038;-63
2021/12/17 02:51:28;;;;;;;17.33;6.95;;;;;;;;;;5009229;28;20136;-63
2021/12/17 02:53:54;;;;;;;15.55;7.00;;;;;;;;;;5009066;28;20381;-64
2021/12/17 02:56:21;;;;;;;17.38;7.60;;;;;;;;;;5008885;28;20184;-64
2021/12/17 02:58:48;;;;;;;15.70;7.05;;;;;;;;;;4992634;28;20075;-63
2021/12/17 03:01:15;;;;;;;18.65;8.10;;;;;;;;;;5009165;28;20469;-63
2021/12/17 03:03:41;;;;;;;19.65;7.97;;;;;;;;;;5009197;28;20042;-63
2021/12/17 03:06:08;;;;;;;20.63;9.02;;;;;;;;;;5008932;28;20156;-64
2021/12/17 03:08:34;;;;;;;21.92;8.32;;;;;;;;;;5008828;28;20508;-63
2021/12/17 03:11:01;;;;;;;19.50;8.77;;;;;;;;;;5010066;28;20409;-63
2021/12/17 03:13:30;;;;;;;23.27;9.25;;;;;;;;;;4991301;28;20053;-63
2021/12/17 03:16:02;;;;;;;24.35;10.10;;;;;;;;;;5008356;28;20045;-63
2021/12/17 03:18:55;;;;;;;25.42;10.27;;;;;;;;;;5008955;28;20177;-63
2021/12/17 03:24:02;;;;;;;24.45;10.30;;;;;;;;;;5011706;28;20038;-62
2021/12/17 03:26:29;;;;;;;28.70;11.98;;;;;;;;;;5009073;28;20563;-62
2021/12/17 03:28:56;;;;;;;21.90;9.65;;;;;;;;;;5010488;28;20403;-62
2021/12/17 03:31:23;;;;;;;25.50;11.18;;;;;;;;;;5010859;28;20496;-61
2021/12/17 03:33:51;;;;;;;25.85;10.63;;;;;;;;;;5011486;28;20697;-62
2021/12/17 03:36:18;;;;;;;28.85;11.02;;;;;;;;;;5026403;28;20377;-62
2021/12/17 03:38:45;;;;;;;23.83;10.50;;;;;;;;;;5011416;28;20057;-61
2021/12/17 03:43:41;;;;;;;26.13;11.82;;;;;;;;;;5011315;28;20088;-61
2021/12/17 03:46:07;;;;;;;24.55;11.50;;;;;;;;;;5010697;28;20080;-62
2021/12/17 03:48:37;;;;;;;24.70;10.98;;;;;;;;;;5009911;28;20239;-62
2021/12/17 03:51:04;;;;;;;27.77;11.13;;;;;;;;;;5010911;28;20045;-61
2021/12/17 03:53:30;;;;;;;32.47;13.13;;;;;;;;;;5009228;28;20041;-62
2021/12/17 03:55:57;;;;;;;29.95;11.63;;;;;;;;;;4991298;28;20042;-61
2021/12/17 03:58:23;;;;;;;24.65;12.35;;;;;;;;;;5007944;28;20089;-61
2021/12/17 04:00:49;;;;;;;32.40;12.20;;;;;;;;;;5007857;28;20042;-61
2021/12/17 04:03:15;;;;;;;31.38;13.00;;;;;;;;;;5008888;28;20556;-61
2021/12/17 04:05:41;;;;;;;25.88;11.75;;;;;;;;;;5008015;28;20451;-62
2021/12/17 04:08:08;;;;;;;27.45;11.77;;;;;;;;;;5009240;28;20466;-61
2021/12/17 04:10:42;;;;;;;29.63;12.43;;;;;;;;;;5005918;28;20056;-61
2021/12/17 04:13:26;;;;;;;33.33;12.88;;;;;;;;;;5008918;28;20045;-61
2021/12/17 04:16:07;;;;;;;26.05;12.07;;;;;;;;;;5007536;28;20061;-62
2021/12/17 04:18:34;;;;;;;23.33;11.07;;;;;;;;;;5007659;28;20770;-61
2021/12/17 04:21:02;;;;;;;23.67;11.20;;;;;;;;;;5007331;28;20053;-61
2021/12/17 04:23:28;;;;;;;27.88;11.88;;;;;;;;;;5008938;28;20046;-61
2021/12/17 04:25:55;;;;;;;27.38;12.00;;;;;;;;;;5008975;28;20046;-61
2021/12/17 04:28:21;;;;;;;30.17;12.05;;;;;;;;;;5007426;28;20126;-61
2021/12/17 04:30:48;;;;;;;26.60;11.70;;;;;;;;;;5008587;28;20932;-61
2021/12/17 04:33:14;;;;;;;23.80;11.48;;;;;;;;;;5008606;28;20041;-62
2021/12/17 04:35:41;;;;;;;26.35;12.10;;;;;;;;;;5007463;28;20038;-62
2021/12/17 04:38:08;;;;;;;27.52;12.40;;;;;;;;;;5007109;28;20057;-63
2021/12/17 04:40:36;;;;;;;27.48;13.18;;;;;;;;;;5008487;28;20060;-62
2021/12/17 04:43:17;;;;;;;26.75;12.55;;;;;;;;;;5006983;28;20034;-62
2021/12/17 04:59:32;;;;;;;24.60;12.95;;;;;;;;;;5007213;28;20393;-61
2021/12/17 05:02:01;;;;;;;21.80;11.10;;;;;;;;;;4990476;28;20663;-63
2021/12/17 05:04:27;;;;;;;25.90;12.57;;;;;;;;;;5006888;28;20049;-63
2021/12/17 05:06:53;;;;;;;26.83;13.13;;;;;;;;;;5006860;28;20058;-63
2021/12/17 05:09:30;;;;;;;25.40;12.43;;;;;;;;;;5008277;28;20091;-64
2021/12/17 05:19:58;;;;;;;26.83;13.50;;;;;;;;;;5020293;28;20499;-63
2021/12/17 05:22:26;;;;;;;27.85;13.02;;;;;;;;;;5006925;28;20443;-63
2021/12/17 05:24:52;;;;;;;29.90;15.05;;;;;;;;;;5008021;28;20103;-63
2021/12/17 05:27:19;;;;;;;26.85;14.13;;;;;;;;;;5007907;28;20042;-63
2021/12/17 05:29:45;;;;;;;27.23;13.13;;;;;;;;;;5006850;28;20483;-63
2021/12/17 05:32:11;;;;;;;29.88;14.05;;;;;;;;;;5007911;28;20064;-63
2021/12/17 05:34:37;;;;;;;31.95;15.25;;;;;;;;;;5006360;28;21579;-63
2021/12/17 05:37:04;;;;;;;26.92;13.80;;;;;;;;;;5006449;28;20034;-64
2021/12/17 05:39:30;;;;;;;28.35;14.18;;;;;;;;;;5007678;28;20041;-63
2021/12/17 05:41:56;;;;;;;27.80;14.02;;;;;;;;;;5007035;28;20490;-63
2021/12/17 05:44:24;;;;;;;30.08;14.45;;;;;;;;;;5006342;28;20496;-63
2021/12/17 05:46:50;;;;;;;30.30;15.15;;;;;;;;;;5007574;28;20057;-64
2021/12/17 05:49:17;;;;;;;29.77;14.30;;;;;;;;;;5008045;28;20042;-63
2021/12/17 05:51:43;;;;;;;26.98;14.45;;;;;;;;;;5007087;28;20076;-63
2021/12/17 05:54:10;;;;;;;29.50;14.38;;;;;;;;;;5007647;28;20069;-63
2021/12/17 05:56:36;;;;;;;27.17;14.85;;;;;;;;;;5008084;28;20523;-63
2021/12/17 05:59:02;;;;;;;35.65;16.30;;;;;;;;;;5006026;28;20420;-64
2021/12/17 06:01:28;;;;;;;26.88;14.30;;;;;;;;;;5007950;28;20045;-64
2021/12/17 06:03:54;;;;;;;28.25;14.30;;;;;;;;;;5011289;28;20127;-63
2021/12/17 06:06:33;;;;;;;26.75;14.18;;;;;;;;;;5010033;28;20125;-63
2021/12/17 06:09:05;;;;;;;33.70;15.52;;;;;;;;;;5009751;28;20042;-63
2021/12/17 06:11:31;;;;;;;36.00;16.40;;;;;;;;;;5010391;28;20050;-62
2021/12/17 06:13:57;;;;;;;30.80;14.93;;;;;;;;;;5009406;28;20333;-62
2021/12/17 06:16:23;;;;;;;34.25;15.30;;;;;;;;;;5009499;28;20374;-63
2021/12/17 06:18:49;;;;;;;36.90;15.95;;;;;;;;;;5003076;28;20128;-62
2021/12/17 06:21:17;;;;;;;31.98;14.45;;;;;;;;;;5009515;28;20042;-63
2021/12/17 06:23:43;;;;;;;32.65;15.27;;;;;;;;;;4993502;28;20400;-63
2021/12/17 06:26:09;;;;;;;40.22;15.90;;;;;;;;;;5009805;28;20459;-63
2021/12/17 06:28:35;;;;;;;44.00;18.25;;;;;;;;;;5010826;28;20619;-62
2021/12/17 06:31:01;;;;;;;41.78;15.93;;;;;;;;;;5009830;28;20048;-62
2021/12/17 06:33:27;;;;;;;35.13;14.95;;;;;;;;;;4992162;28;20108;-62
2021/12/17 06:35:53;;;;;;;45.63;16.83;;;;;;;;;;5009652;28;20048;-62
2021/12/17 06:38:20;;;;;;;45.20;16.85;;;;;;;;;;5009387;28;20046;-63
2021/12/17 06:40:48;;;;;;;42.03;17.65;;;;;;;;;;5009539;28;20038;-63
2021/12/17 06:43:15;;;;;;;45.92;16.58;;;;;;;;;;5010592;28;20059;-63
2021/12/17 06:45:53;;;;;;;52.50;18.17;;;;;;;;;;5009258;28;20050;-62
2021/12/17 06:48:24;;;;;;;47.13;16.73;;;;;;;;;;5008324;28;20053;-63
2021/12/17 06:59:06;;;;;;;54.17;18.23;;;;;;;;;;5008482;28;20065;-62
2021/12/17 07:33:09;;;;;;;68.93;22.10;;;;;;;;;;5009875;28;20076;-61
2021/12/17 07:40:50;;;;;;;80.82;24.65;;;;;;;;;;5009888;28;20153;-63
2021/12/17 07:43:25;;;;;;;75.80;24.20;;;;;;;;;;5009177;28;20119;-63
2021/12/17 07:45:53;;;;;;;74.45;23.75;;;;;;;;;;5008643;28;20384;-62
2021/12/17 07:48:20;;;;;;;76.55;23.58;;;;;;;;;;5008703;28;20038;-62
2021/12/17 07:50:46;;;;;;;76.97;24.65;;;;;;;;;;5010566;28;20056;-62
2021/12/17 07:53:12;;;;;;;88.82;25.75;;;;;;;;;;5009795;28;20037;-62
2021/12/17 07:55:38;;;;;;;82.32;26.30;;;;;;;;;;5007920;28;20057;-62
2021/12/17 07:58:04;;;;;;;84.40;26.20;;;;;;;;;;5007643;28;20711;-63
2021/12/17 08:00:30;;;;;;;93.47;27.27;;;;;;;;;;5007431;28;20037;-64
2021/12/17 08:02:56;;;;;;;84.70;26.50;;;;;;;;;;4991076;28;20502;-63
2021/12/17 08:05:22;;;;;;;83.43;27.45;;;;;;;;;;5006933;28;20068;-63
2021/12/17 08:07:48;;;;;;;115.60;38.15;;;;;;;;;;5007693;28;20510;-63
2021/12/17 08:10:14;;;;;;;84.20;27.30;;;;;;;;;;5009065;28;20483;-63
2021/12/17 08:12:40;;;;;;;93.15;27.23;;;;;;;;;;5018631;28;20119;-63
2021/12/17 08:15:09;;;;;;;98.97;29.95;;;;;;;;;;5008584;28;20053;-63
2021/12/17 08:17:49;;;;;;;100.70;30.00;;;;;;;;;;5009397;28;20064;-62
2021/12/17 08:26:54;;;;;;;90.78;28.88;;;;;;;;;;5008086;28;20077;-63
2021/12/17 08:31:21;;;;;;;86.93;29.75;;;;;;;;;;5007690;28;20054;-63
2021/12/17 08:33:47;;;;;;;91.70;31.50;;;;;;;;;;5010059;28;20096;-62
2021/12/17 08:36:14;;;;;;;87.28;28.58;;;;;;;;;;5009303;28;20042;-62
2021/12/17 08:38:41;;;;;;;84.43;29.15;;;;;;;;;;5006145;28;20049;-62
2021/12/17 08:41:09;;;;;;;90.05;30.60;;;;;;;;;;5009255;28;20057;-63
2021/12/17 08:43:35;;;;;;;80.15;28.75;;;;;;;;;;5011149;28;20542;-62
2021/12/17 08:46:01;;;;;;;78.05;27.90;;;;;;;;;;5008898;28;20053;-62
2021/12/17 08:48:27;;;;;;;78.47;30.20;;;;;;;;;;5009707;28;20432;-62
2021/12/17 08:50:53;;;;;;;90.53;31.25;;;;;;;;;;5009348;28;20520;-63
2021/12/17 08:53:19;;;;;;;78.40;28.25;;;;;;;;;;5008426;28;20076;-62
2021/12/17 08:55:46;;;;;;;102.22;32.50;;;;;;;;;;5008306;28;20077;-63
2021/12/17 08:58:14;;;;;;;69.28;27.48;;;;;;;;;;5007809;28;20062;-63
2021/12/17 09:00:44;;;;;;;77.28;29.25;;;;;;;;;;5008546;28;20681;-63
2021/12/17 09:03:10;;;;;;;72.25;28.15;;;;;;;;;;5008001;28;20132;-63
2021/12/17 09:05:38;;;;;;;66.47;26.20;;;;;;;;;;5010975;28;20041;-62
2021/12/17 09:08:07;;;;;;;62.72;24.23;;;;;;;;;;5011233;28;20404;-63
2021/12/17 09:10:34;;;;;;;82.78;29.15;;;;;;;;;;5011261;28;20064;-62
2021/12/17 09:13:00;;;;;;;63.85;25.10;;;;;;;;;;5011310;28;20042;-62
2021/12/17 09:15:27;;;;;;;69.25;26.77;;;;;;;;;;5010798;28;20129;-62
2021/12/17 09:17:53;;;;;;;71.47;28.23;;;;;;;;;;5011154;28;20049;-62
2021/12/17 09:20:19;;;;;;;61.50;23.90;;;;;;;;;;5010973;28;20484;-62
2021/12/17 09:22:45;;;;;;;65.18;25.67;;;;;;;;;;5025100;28;20038;-62
2021/12/17 09:25:11;;;;;;;53.17;22.60;;;;;;;;;;5009252;28;20385;-62
2021/12/17 09:27:38;;;;;;;48.42;19.40;;;;;;;;;;5010110;28;20037;-63
2021/12/17 09:30:06;;;;;;;46.45;18.88;;;;;;;;;;5010572;28;20045;-62
2021/12/17 09:32:32;;;;;;;51.63;19.20;;;;;;;;;;5009726;28;20044;-63
2021/12/17 09:34:58;;;;;;;53.08;18.95;;;;;;;;;;5026216;28;20514;-63
2021/12/17 09:37:24;;;;;;;38.72;14.77;;;;;;;;;;5014413;28;20038;-62
2021/12/17 09:39:50;;;;;;;37.78;13.55;;;;;;;;;;5014541;28;20067;-62
2021/12/17 09:42:17;;;;;;;38.60;13.27;;;;;;;;;;5013591;28;20431;-62
2021/12/17 09:44:43;;;;;;;40.28;13.20;;;;;;;;;;5014780;28;20042;-63
2021/12/17 09:47:09;;;;;;;23.38;9.52;;;;;;;;;;5029502;28;20476;-63
2021/12/17 09:49:36;;;;;;;24.88;7.45;;;;;;;;;;5008145;28;20044;-62
2021/12/17 09:52:02;;;;;;;20.23;6.85;;;;;;;;;;5013337;28;20038;-62
2021/12/17 09:54:28;;;;;;;23.60;6.38;;;;;;;;;;5012538;28;20042;-62
2021/12/17 09:56:54;;;;;;;22.33;6.18;;;;;;;;;;5014085;28;20057;-63
2021/12/17 09:59:20;;;;;;;25.38;7.45;;;;;;;;;;5012631;28;20089;-63
2021/12/17 10:01:48;;;;;;;28.08;7.55;;;;;;;;;;5011979;28;20053;-64
2021/12/17 10:04:19;;;;;;;35.95;8.50;;;;;;;;;;5007712;28;20034;-64
2021/12/17 10:06:45;;;;;;;26.48;7.68;;;;;;;;;;5009801;28;20527;-63
2021/12/17 10:09:11;;;;;;;32.95;7.63;;;;;;;;;;5007865;28;20053;-64
2021/12/17 10:11:38;;;;;;;30.70;8.73;;;;;;;;;;5008066;28;20403;-64
2021/12/17 10:14:17;;;;;;;31.38;8.25;;;;;;;;;;5008833;28;20509;-65
2021/12/17 10:16:43;;;;;;;22.52;6.97;;;;;;;;;;5009786;28;20038;-63
2021/12/17 10:19:09;;;;;;;26.65;7.05;;;;;;;;;;5010748;28;20060;-63
2021/12/17 10:21:38;;;;;;;30.60;7.18;;;;;;;;;;5010450;28;20487;-64
2021/12/17 10:24:05;;;;;;;28.40;7.55;;;;;;;;;;5011464;28;20042;-64
2021/12/17 10:26:41;;;;;;;17.23;5.13;;;;;;;;;;5011062;28;20037;-63
2021/12/17 10:29:07;;;;;;;11.60;4.75;;;;;;;;;;5006274;28;20053;-63
2021/12/17 10:31:37;;;;;;;16.45;4.88;;;;;;;;;;5010364;28;20427;-63
2021/12/17 10:34:05;;;;;;;19.70;4.70;;;;;;;;;;5008308;28;20042;-64
2021/12/17 10:36:31;;;;;;;17.77;4.90;;;;;;;;;;5008020;28;20085;-63
2021/12/17 10:38:57;;;;;;;13.98;4.90;;;;;;;;;;5008783;28;20100;-63
2021/12/17 10:41:26;;;;;;;13.57;4.65;;;;;;;;;;4992446;28;20125;-63
2021/12/17 10:43:58;;;;;;;20.23;5.10;;;;;;;;;;5009118;28;20042;-63
2021/12/17 10:46:28;;;;;;;16.42;4.60;;;;;;;;;;5007651;28;20108;-63
2021/12/17 10:49:13;;;;;;;9.50;3.40;;;;;;;;;;5007575;28;20095;-63
2021/12/17 10:54:16;;;;;;;9.48;1.75;;;;;;;;;;5008349;28;20115;-63
2021/12/17 10:56:44;;;;;;;3.05;1.10;;;;;;;;;;5009461;28;20038;-63
2021/12/17 10:59:13;;;;;;;7.78;1.50;;;;;;;;;;5007440;28;20108;-63
2021/12/17 11:01:42;;;;;;;6.80;1.30;;;;;;;;;;5007526;28;20096;-63
2021/12/17 11:04:12;;;;;;;3.55;1.23;;;;;;;;;;5010410;28;20399;-63
2021/12/17 11:06:53;;;;;;;7.15;1.67;;;;;;;;;;4991507;28;20135;-63
2021/12/17 11:09:42;;;;;;;6.68;1.98;;;;;;;;;;5006528;28;20374;-63
2021/12/17 11:12:14;;;;;;;6.70;2.60;;;;;;;;;;5017975;28;20089;-63
2021/12/17 11:14:40;;;;;;;7.40;1.52;;;;;;;;;;5006049;28;20419;-63
2021/12/17 11:17:09;;;;;;;5.40;1.77;;;;;;;;;;5008649;28;20648;-64
2021/12/17 11:19:36;;;;;;;5.20;1.23;;;;;;;;;;5009466;28;20081;-62
2021/12/17 11:22:02;;;;;;;6.00;1.70;;;;;;;;;;5010646;28;20084;-62
2021/12/17 11:24:29;;;;;;;7.28;2.05;;;;;;;;;;5008752;28;20508;-62
2021/12/17 11:26:55;;;;;;;7.30;2.22;;;;;;;;;;5008602;28;20100;-62
2021/12/17 11:29:22;;;;;;;6.95;2.35;;;;;;;;;;5008034;28;20126;-63
2021/12/17 11:31:48;;;;;;;8.55;3.50;;;;;;;;;;5010282;28;20053;-63
2021/12/17 11:34:17;;;;;;;6.50;3.58;;;;;;;;;;4991993;28;20045;-62
2021/12/17 11:36:43;;;;;;;6.80;3.50;;;;;;;;;;5008430;28;20381;-63
2021/12/17 11:39:23;;;;;;;5.95;3.50;;;;;;;;;;5006681;28;20495;-63
2021/12/17 11:42:16;;;;;;;7.03;4.93;;;;;;;;;;5004556;28;20370;-63
2021/12/17 11:44:52;;;;;;;5.68;3.85;;;;;;;;;;5016487;28;20046;-63
2021/12/17 11:47:18;;;;;;;6.38;4.03;;;;;;;;;;5016518;28;20033;-63
2021/12/17 11:49:49;;;;;;;5.03;4.00;;;;;;;;;;5006574;28;20555;-64
2021/12/17 11:52:34;;;;;;;5.82;4.05;;;;;;;;;;5006894;28;20461;-63
2021/12/17 11:55:19;;;;;;;6.38;4.00;;;;;;;;;;5003828;28;20100;-63
2021/12/17 11:57:46;;;;;;;5.97;4.50;;;;;;;;;;5006322;28;20061;-63
2021/12/17 12:00:16;;;;;;;6.65;5.22;;;;;;;;;;5007057;28;20054;-63
2021/12/17 12:02:50;;;;;;;7.55;5.60;;;;;;;;;;5005958;28;20128;-63
2021/12/17 12:05:36;;;;;;;8.10;5.57;;;;;;;;;;5006200;28;20069;-63
2021/12/17 12:08:21;;;;;;;10.32;6.95;;;;;;;;;;5005940;28;20125;-63
2021/12/17 12:11:02;;;;;;;10.98;6.88;;;;;;;;;;5012489;28;20531;-65
2021/12/17 12:13:45;;;;;;;14.32;8.55;;;;;;;;;;5008350;28;20038;-63
2021/12/17 12:16:13;;;;;;;12.50;6.87;;;;;;;;;;5007022;28;20050;-63
2021/12/17 12:18:47;;;;;;;9.18;7.13;;;;;;;;;;5005983;28;20057;-64
2021/12/17 12:21:18;;;;;;;12.68;7.50;;;;;;;;;;5007145;28;20041;-64
2021/12/17 12:23:50;;;;;;;13.45;8.85;;;;;;;;;;5008159;28;20041;-64
2021/12/17 12:26:20;;;;;;;11.02;8.57;;;;;;;;;;5013604;28;20048;-64
2021/12/17 12:28:58;;;;;;;11.88;7.63;;;;;;;;;;5011625;28;20057;-62
2021/12/17 12:31:27;;;;;;;12.95;7.97;;;;;;;;;;5005784;28;20054;-63
2021/12/17 12:34:06;;;;;;;12.43;7.03;;;;;;;;;;5006476;28;20373;-63
2021/12/17 12:36:47;;;;;;;9.68;7.70;;;;;;;;;;5023738;28;20045;-63
2021/12/17 12:39:35;;;;;;;11.95;7.63;;;;;;;;;;5006065;28;20048;-63
2021/12/17 12:42:14;;;;;;;14.75;9.10;;;;;;;;;;5007955;28;20054;-62
2021/12/17 12:44:41;;;;;;;14.95;9.30;;;;;;;;;;5008608;28;20415;-61
2021/12/17 12:47:09;;;;;;;10.27;7.90;;;;;;;;;;5022722;28;20056;-62
2021/12/17 12:49:54;;;;;;;11.82;7.80;;;;;;;;;;5007108;28;20396;-61
2021/12/17 12:52:20;;;;;;;10.13;7.22;;;;;;;;;;5017370;28;20122;-61
2021/12/17 12:54:50;;;;;;;13.20;7.55;;;;;;;;;;5007202;28;20044;-61
2021/12/17 12:57:31;;;;;;;11.80;7.22;;;;;;;;;;5005791;28;20065;-62
2021/12/17 12:59:59;;;;;;;11.93;8.30;;;;;;;;;;5007783;28;20046;-61
2021/12/17 13:02:26;;;;;;;11.70;8.05;;;;;;;;;;5008020;28;20341;-62
2021/12/17 13:04:55;;;;;;;12.98;8.98;;;;;;;;;;5008280;28;20034;-62
2021/12/17 13:07:32;;;;;;;11.23;7.90;;;;;;;;;;5006059;28;20038;-61
2021/12/17 13:09:58;;;;;;;10.30;8.13;;;;;;;;;;5004893;28;20041;-61
2021/12/17 13:12:25;;;;;;;13.07;8.52;;;;;;;;;;5006713;28;20046;-61
2021/12/17 13:14:55;;;;;;;11.52;8.82;;;;;;;;;;5005894;28;20029;-61
2021/12/17 13:20:15;;;;;;;14.90;8.63;;;;;;;;;;5005714;28;20112;-61
2021/12/17 13:20:43;;;;;;;13.27;9.32;;;;;;;;;;5021991;28;20744;-60
2021/12/17 13:23:19;;;;;;;11.00;8.75;;;;;;;;;;5006286;28;20046;-61
2021/12/17 13:25:45;;;;;;;12.50;8.40;;;;;;;;;;5007733;28;20093;-61
2021/12/17 13:28:11;;;;;;;12.68;8.15;;;;;;;;;;5006422;28;20052;-61
2021/12/17 13:30:37;;;;;;;13.77;8.75;;;;;;;;;;5005359;28;20135;-61
2021/12/17 13:33:03;;;;;;;12.00;9.32;;;;;;;;;;5005424;28;20401;-61
2021/12/17 13:35:33;;;;;;;13.77;9.35;;;;;;;;;;5004485;28;20049;-60
2021/12/17 13:38:03;;;;;;;15.80;10.00;;;;;;;;;;5005892;28;20503;-61
2021/12/17 13:40:35;;;;;;;16.17;8.77;;;;;;;;;;5005455;28;20034;-61
2021/12/17 13:43:01;;;;;;;18.88;11.20;;;;;;;;;;5005594;28;20068;-62
2021/12/17 13:45:30;;;;;;;16.85;8.85;;;;;;;;;;5004310;28;20054;-61
2021/12/17 13:47:57;;;;;;;15.07;10.15;;;;;;;;;;5010183;28;20488;-61
2021/12/17 13:50:25;;;;;;;19.45;11.35;;;;;;;;;;5004709;28;20127;-61
2021/12/17 13:52:54;;;;;;;15.40;10.40;;;;;;;;;;5005362;28;20125;-61
2021/12/17 13:55:22;;;;;;;19.45;11.18;;;;;;;;;;5009940;28;20046;-62
2021/12/17 13:57:48;;;;;;;20.40;10.60;;;;;;;;;;5006383;28;20061;-61
2021/12/17 14:00:15;;;;;;;20.15;11.25;;;;;;;;;;5006130;28;20391;-60
2021/12/17 14:02:42;;;;;;;17.08;10.38;;;;;;;;;;5005704;28;20129;-62
2021/12/17 14:05:10;;;;;;;15.63;10.88;;;;;;;;;;5022642;28;20049;-63
2021/12/17 14:07:37;;;;;;;17.50;11.15;;;;;;;;;;5007543;28;20133;-62
2021/12/17 14:10:08;;;;;;;19.08;12.63;;;;;;;;;;5007010;28;20125;-62
2021/12/17 14:12:37;;;;;;;18.98;11.70;;;;;;;;;;5006079;28;20435;-62
2021/12/17 14:15:16;;;;;;;17.90;11.20;;;;;;;;;;5006001;28;20046;-62
2021/12/17 14:17:44;;;;;;;16.58;10.98;;;;;;;;;;5006366;28;20065;-62
2021/12/17 14:20:10;;;;;;;18.58;10.93;;;;;;;;;;5006456;28;20605;-62
2021/12/17 14:22:37;;;;;;;16.77;11.68;;;;;;;;;;5004614;28;20046;-62
2021/12/17 14:25:36;;;;;;;19.73;12.63;;;;;;;;;;5008508;28;20041;-63
2021/12/17 14:28:08;;;;;;;23.05;13.05;;;;;;;;;;4981993;28;20068;-64
2021/12/17 14:30:35;;;;;;;27.17;14.37;;;;;;;;;;5008727;28;20376;-63
2021/12/17 14:33:15;;;;;;;27.88;14.20;;;;;;;;;;5008690;28;20333;-63
2021/12/17 14:35:41;;;;;;;28.17;14.93;;;;;;;;;;5015859;28;20129;-63
2021/12/17 14:38:07;;;;;;;30.42;14.90;;;;;;;;;;5008337;28;20049;-63
2021/12/17 14:43:27;;;;;;;19.27;12.18;;;;;;;;;;5016179;28;20045;-64
2021/12/17 14:45:59;;;;;;;22.10;11.80;;;;;;;;;;5007525;28;21289;-63
2021/12/17 14:48:37;;;;;;;19.58;11.20;;;;;;;;;;5007904;28;20050;-62
2021/12/17 15:04:42;;;;;;;16.52;9.48;;;;;;;;;;5007033;28;20038;-61
2021/12/17 15:07:08;;;;;;;14.10;8.10;;;;;;;;;;5008543;28;20057;-61
2021/12/17 15:09:42;;;;;;;19.38;9.15;;;;;;;;;;5009092;28;20124;-61
2021/12/17 15:12:26;;;;;;;16.08;9.05;;;;;;;;;;5008492;28;20042;-62
2021/12/17 15:14:53;;;;;;;13.38;8.68;;;;;;;;;;5007883;28;20503;-61
2021/12/17 15:17:20;;;;;;;15.10;7.72;;;;;;;;;;5008693;28;20096;-61
2021/12/17 15:19:46;;;;;;;12.27;7.25;;;;;;;;;;5009727;28;20045;-62
2021/12/17 15:22:12;;;;;;;16.60;8.80;;;;;;;;;;5008115;28;20038;-61
2021/12/17 15:24:39;;;;;;;15.95;9.10;;;;;;;;;;5024162;28;20048;-62
2021/12/17 15:27:06;;;;;;;14.63;8.55;;;;;;;;;;5009933;28;20049;-62
2021/12/17 15:29:32;;;;;;;12.43;8.82;;;;;;;;;;5010080;28;20396;-62
2021/12/17 15:31:58;;;;;;;11.27;7.40;;;;;;;;;;5008714;28;20133;-62
2021/12/17 15:34:25;;;;;;;10.77;7.25;;;;;;;;;;5008074;28;20496;-61
2021/12/17 15:36:52;;;;;;;10.57;6.50;;;;;;;;;;5009015;28;20451;-61
2021/12/17 15:39:18;;;;;;;12.77;6.88;;;;;;;;;;5008690;28;20042;-61
2021/12/17 15:41:44;;;;;;;11.27;5.97;;;;;;;;;;5010077;28;20042;-62
2021/12/17 15:44:11;;;;;;;13.07;7.18;;;;;;;;;;5010660;28;20042;-62
2021/12/17 15:46:37;;;;;;;14.90;8.02;;;;;;;;;;5010496;28;20539;-60
2021/12/17 15:49:04;;;;;;;15.10;8.70;;;;;;;;;;5009557;28;20042;-61
2021/12/17 15:51:30;;;;;;;24.80;10.35;;;;;;;;;;5007024;28;20041;-61
2021/12/17 15:53:56;;;;;;;23.92;10.13;;;;;;;;;;5006864;28;20052;-62
2021/12/17 15:56:23;;;;;;;19.30;10.40;;;;;;;;;;5009186;28;20044;-61
2021/12/17 15:58:49;;;;;;;20.95;10.07;;;;;;;;;;5007919;28;20460;-61
2021/12/17 16:01:40;;;;;;;17.92;10.18;;;;;;;;;;5008340;28;20127;-61
2021/12/17 16:04:06;;;;;;;21.70;10.90;;;;;;;;;;5009390;28;20042;-62
2021/12/17 16:06:32;;;;;;;23.75;10.40;;;;;;;;;;4998461;28;20045;-61
2021/12/17 16:09:01;;;;;;;23.65;11.70;;;;;;;;;;5024471;28;20034;-61
2021/12/17 16:22:01;;;;;;;23.00;10.15;;;;;;;;;;5008389;28;20045;-63
2021/12/17 16:24:28;;;;;;;22.35;9.10;;;;;;;;;;5006585;28;20487;-61
2021/12/17 16:26:54;;;;;;;9.68;6.20;;;;;;;;;;5007387;28;20038;-61
2021/12/17 16:29:20;;;;;;;10.48;5.85;;;;;;;;;;5008137;28;20049;-60
2021/12/17 16:31:48;;;;;;;7.97;4.05;;;;;;;;;;5006942;28;20077;-62
2021/12/17 16:34:14;;;;;;;7.00;3.75;;;;;;;;;;4990109;28;20511;-62
2021/12/17 16:36:41;;;;;;;5.43;3.00;;;;;;;;;;5006184;28;20048;-62
2021/12/17 16:39:08;;;;;;;4.28;2.55;;;;;;;;;;5007678;28;20550;-64
2021/12/17 16:41:35;;;;;;;5.45;3.05;;;;;;;;;;5008267;28;20041;-63
2021/12/17 16:44:04;;;;;;;3.50;2.50;;;;;;;;;;5007896;28;22079;-62
2021/12/17 16:47:16;;;;;;;7.00;2.67;;;;;;;;;;5011788;28;20042;-62
2021/12/17 16:49:19;;;;;;;6.03;3.10;;;;;;;;;;4995383;28;20080;-62
2021/12/17 16:51:45;;;;;;;6.90;3.55;;;;;;;;;;5005919;28;20064;-61
2021/12/17 16:54:11;;;;;;;6.53;3.47;;;;;;;;;;5007229;28;20115;-63
2021/12/17 16:56:38;;;;;;;9.10;3.95;;;;;;;;;;5014214;28;20502;-63
2021/12/17 16:59:04;;;;;;;9.30;4.05;;;;;;;;;;5007992;28;20058;-62
2021/12/17 17:01:33;;;;;;;10.15;4.15;;;;;;;;;;4990862;28;20030;-62
2021/12/17 17:03:59;;;;;;;9.40;3.70;;;;;;;;;;4989515;28;20045;-63
2021/12/17 17:06:25;;;;;;;6.95;2.55;;;;;;;;;;5006281;28;20506;-63
2021/12/17 17:08:55;;;;;;;6.75;2.72;;;;;;;;;;5005721;28;20132;-63
2021/12/17 17:11:28;;;;;;;5.07;2.00;;;;;;;;;;5005882;28;20037;-63
2021/12/17 17:13:54;;;;;;;4.10;1.85;;;;;;;;;;5004838;28;20404;-63
2021/12/17 17:16:20;;;;;;;6.60;1.50;;;;;;;;;;5006961;28;20050;-63
2021/12/17 17:18:47;;;;;;;3.92;1.70;;;;;;;;;;5006771;28;20278;-64
2021/12/17 17:21:13;;;;;;;4.63;1.70;;;;;;;;;;5001256;28;20030;-62
2021/12/17 17:23:41;;;;;;;6.38;1.67;;;;;;;;;;5007719;28;20038;-63
2021/12/17 17:26:07;;;;;;;4.95;2.00;;;;;;;;;;5007564;28;20172;-63
2021/12/17 17:28:34;;;;;;;9.13;1.67;;;;;;;;;;5006562;28;20604;-63
2021/12/17 17:31:00;;;;;;;16.83;2.70;;;;;;;;;;5005859;28;20042;-62
2021/12/17 17:33:27;;;;;;;38.10;5.32;;;;;;;;;;5007186;28;20243;-62
2021/12/17 17:35:53;;;;;;;25.73;3.33;;;;;;;;;;5005316;28;20503;-62
2021/12/17 17:38:20;;;;;;;15.52;3.40;;;;;;;;;;5005476;28;20067;-62
2021/12/17 17:40:46;;;;;;;25.33;3.72;;;;;;;;;;5015158;28;20061;-61
2021/12/17 17:43:15;;;;;;;11.82;2.75;;;;;;;;;;4990242;28;20045;-61
2021/12/17 17:45:41;;;;;;;12.27;1.98;;;;;;;;;;5007559;28;20555;-61
2021/12/17 17:48:09;;;;;;;17.55;2.10;;;;;;;;;;5006084;28;20050;-61
2021/12/17 17:50:37;;;;;;;11.13;1.95;;;;;;;;;;5007909;28;20046;-61
2021/12/17 17:53:04;;;;;;;20.08;2.05;;;;;;;;;;5007630;28;20464;-60
2021/12/17 17:55:30;;;;;;;38.17;2.28;;;;;;;;;;5009437;28;20057;-60